Atlanta, GA (30310)

12:38 AM EDT on September 02, 2014 (GMT -0400)
Grant Park | Change Station
CLOSE
Current Station
Personal Weather Station
Location: Atlanta, GA
Elevation: 1050 ft
Nearby Weather Stations

Elev 1050 ft 33.74 °N, 84.37 °W | Updated 3 minutes ago

Mostly Cloudy
Mostly Cloudy
75.6 °F
Feels Like 76 °F
N
0.0
Wind Variable Wind from SSE
Gusts 0.0 mph

Today
High -- | Low -- °F
--% Chance of Precip.
Yesterday
High -- | Low -- °F
Precip. -- in
7:12 AM 8:01 PM
Waxing Crescent, 47% visible
Pressure 30.09 in
Visibility 10.0 miles
Clouds Few 15000 ft
Scattered Clouds 18000 ft
Mostly Cloudy 25000 ft
Heat Index 76 °F
Dew Point 70 °F
Humidity 82%
Rainfall 0.00 in
Snow Depth Not available.
UV 0 out of 12
Pollen 9.00 out of 12
Air Quality Not available.
Flu Activity Not available.
METAR KATL 020352Z 18003KT 10SM FEW150 SCT180 BKN250 24/22 A3012 RMK AO2 SLP187 T02390222

More Conditions Fewer Conditions

Pressure 30.09 in
Visibility 10.0 miles
Clouds Few 15000 ft
Scattered Clouds 18000 ft
Mostly Cloudy 25000 ft
Heat Index 76 °F
Dew Point 70 °F
Humidity 82%
Rainfall 0.00 in
Snow Depth Not available.
UV 0 out of 12
Pollen 9.00 out of 12
Air Quality Not available.
Flu Activity Not available.
METAR KATL 020352Z 18003KT 10SM FEW150 SCT180 BKN250 24/22 A3012 RMK AO2 SLP187 T02390222

More Conditions Fewer Conditions

10-Day Weather Forecast

Almanac

Astronomy

Sep. 02, 2014 Rise Set
Actual Time 7:12 AM EDT 8:01 PM EDT
Civil Twilight 6:46 AM EDT 8:27 PM EDT
Nautical Twilight 6:16 AM EDT 8:57 PM EDT
Astronomical Twilight 5:45 AM EDT 9:27 PM EDT
Moon 2:35 PM EDT 12:23 AM EDT
Length of Visible Light 13h 40m
Length of Day
12h 49m
Tomorrow will be 2m 1s shorter.
Waxing Crescent, 47% of the Moon is Illuminated
Today
Waxing Crescent
Sep 2
First Quarter
Sep 8
Full
Sep 15
Last Quarter
Sep 24
New

Yesterday's Extremes

State Highs State Lows

Community

WunderPhotos

Upload Photos

1,749,566 photos uploaded!

WunderBlogs® & News

Nearby

Air Quality

  Air Quality AQ Index Pollutant
Monday Moderate
PM2.5
Monday Good
OZONE
Tuesday Moderate
OZONE
Tuesday Moderate
PM2.5

Snow Depth

Station Depth Elevation
No new snow has been reported.

Earthquake Activity

City Distance Mag. Time & Date
No recent earthquake activity has been reported nearby.
Minimum magnitude displayed is 2.5.

Coastal Water Temperatures

Place Temperature
No Stations Reporting

Nearby Weather Stations